createdAt,value
2023-04-19T00:00:20.495Z,101692.17
2023-04-19T00:01:25.849Z,101694.23
2023-04-19T00:02:31.380Z,101692.8
2023-04-19T00:03:37.296Z,101692.59
2023-04-19T00:04:43.306Z,101694.17
2023-04-19T00:05:48.811Z,101695.98
2023-04-19T00:06:54.142Z,101689.64
2023-04-19T00:07:59.522Z,101688.25
2023-04-19T00:09:04.861Z,101680.63
2023-04-19T00:10:10.662Z,101685.51
2023-04-19T00:11:15.996Z,101685.48
2023-04-19T00:12:21.393Z,101681.19
2023-04-19T00:13:26.743Z,101680.12
2023-04-19T00:14:32.094Z,101681.52
2023-04-19T00:15:37.452Z,101686.81
2023-04-19T00:16:42.952Z,101677.08
2023-04-19T00:17:48.458Z,101678.48
2023-04-19T00:18:53.841Z,101673.63
2023-04-19T00:19:59.197Z,101674.34
2023-04-19T00:21:04.548Z,101670.89
2023-04-19T00:22:09.902Z,101680.41
2023-04-19T00:23:15.223Z,101665.32
2023-04-19T00:24:20.588Z,101670.38
2023-04-19T00:25:25.915Z,101672.02
2023-04-19T00:26:31.254Z,101667.58
2023-04-19T00:27:36.625Z,101673.66
2023-04-19T00:28:41.968Z,101670.11
2023-04-19T00:29:47.301Z,101665.67
2023-04-19T00:30:52.820Z,101666.45
2023-04-19T00:31:58.240Z,101659.25
2023-04-19T00:33:03.751Z,101663.2
2023-04-19T00:34:09.255Z,101661.15
2023-04-19T00:35:14.618Z,101666.36
2023-04-19T00:36:19.929Z,101663.27
2023-04-19T00:37:25.293Z,101659.96
2023-04-19T00:38:30.606Z,101666.16
2023-04-19T00:39:35.986Z,101656.72
2023-04-19T00:40:41.312Z,101655.52
2023-04-19T00:41:46.668Z,101656.42
2023-04-19T00:42:52.014Z,101655.17
2023-04-19T00:43:57.434Z,101655.23
2023-04-19T00:45:02.778Z,101650.85
2023-04-19T00:46:08.205Z,101654.3
2023-04-19T00:47:13.752Z,101654.24
2023-04-19T00:48:19.055Z,101653.38
2023-04-19T00:49:24.443Z,101651.81
2023-04-19T00:50:29.782Z,101647.88
2023-04-19T00:51:35.094Z,101657.61
2023-04-19T00:52:40.419Z,101653.02
2023-04-19T00:53:45.740Z,101648.29
2023-04-19T00:54:51.065Z,101639.72
2023-04-19T00:55:56.386Z,101644.09
2023-04-19T00:57:01.720Z,101644.27
2023-04-19T00:58:07.052Z,101644.27
2023-04-19T00:59:12.734Z,101626.65
2023-04-19T01:00:18.073Z,101634.89
2023-04-19T01:01:23.499Z,101634
2023-04-19T01:02:29.118Z,101635.1
2023-04-19T01:03:35.313Z,101632.01
2023-04-19T01:04:41.182Z,101635.79
2023-04-19T01:05:46.543Z,101632.78
2023-04-19T01:06:51.898Z,101629.45
2023-04-19T01:07:57.238Z,101633.83
2023-04-19T01:09:02.621Z,101625.25
2023-04-19T01:10:07.982Z,101624.74
2023-04-19T01:11:13.316Z,101630.31
2023-04-19T01:12:18.654Z,101621.59
2023-04-19T01:13:23.997Z,101628.64
2023-04-19T01:14:29.389Z,101621.79
2023-04-19T01:15:34.762Z,101626.31
2023-04-19T01:16:40.121Z,101627.16
2023-04-19T01:17:45.571Z,101623.81
2023-04-19T01:18:50.949Z,101621.86
2023-04-19T01:19:56.293Z,101627.96
2023-04-19T01:21:01.647Z,101623.94
2023-04-19T01:22:06.962Z,101620.58
2023-04-19T01:23:13.392Z,101619.72
2023-04-19T01:24:18.941Z,101617.9
2023-04-19T01:25:24.363Z,101618.94
2023-04-19T01:26:29.725Z,101612.13
2023-04-19T01:27:35.143Z,101609.8
2023-04-19T01:28:40.488Z,101615.01
2023-04-19T01:29:45.812Z,101610.78
2023-04-19T01:30:51.233Z,101613.31
2023-04-19T01:31:56.693Z,101621.5
2023-04-19T01:33:03.098Z,101617.75
2023-04-19T01:34:08.608Z,101617.27
2023-04-19T01:35:13.952Z,101617.9
2023-04-19T01:36:22.336Z,101615.13
2023-04-19T01:37:27.707Z,101608.73
2023-04-19T01:38:33.036Z,101609.06
2023-04-19T01:39:38.429Z,101606.03
2023-04-19T01:40:43.763Z,101601.17
2023-04-19T01:41:49.111Z,101602.72
2023-04-19T01:42:54.440Z,101603.44
2023-04-19T01:43:59.766Z,101605.91
2023-04-19T01:45:05.119Z,101609.63
2023-04-19T01:46:10.472Z,101605.76
2023-04-19T01:47:15.826Z,101601.67
2023-04-19T01:48:21.195Z,101604.3
2023-04-19T01:49:26.550Z,101596.8
2023-04-19T01:50:31.884Z,101596.26
2023-04-19T01:51:37.293Z,101602.45
2023-04-19T01:52:42.649Z,101602.75
2023-04-19T01:53:47.990Z,101603.99
2023-04-19T01:54:53.289Z,101598.16
2023-04-19T01:55:58.610Z,101599.5
2023-04-19T01:57:03.953Z,101594.55
2023-04-19T01:58:09.267Z,101604.5
2023-04-19T01:59:14.612Z,101591.88
2023-04-19T02:00:19.956Z,101600.19
2023-04-19T02:01:25.645Z,101599.92
2023-04-19T02:02:31.280Z,101602.6
2023-04-19T02:03:37.323Z,101592.66
2023-04-19T02:04:43.083Z,101602.45
2023-04-19T02:05:48.459Z,101597.15
2023-04-19T02:06:53.801Z,101602.39
2023-04-19T02:07:59.133Z,101604.21
2023-04-19T02:09:04.528Z,101597.3
2023-04-19T02:10:09.844Z,101598.58
2023-04-19T02:11:15.201Z,101598.78
2023-04-19T02:12:20.562Z,101599.75
2023-04-19T02:13:25.901Z,101604.39
2023-04-19T02:14:31.287Z,101601.66
2023-04-19T02:15:36.645Z,101601.67
2023-04-19T02:16:42.073Z,101604.71
2023-04-19T02:17:47.582Z,101600.55
2023-04-19T02:18:52.989Z,101595.94
2023-04-19T02:19:58.346Z,101595.02
2023-04-19T02:21:04.732Z,101603.73
2023-04-19T02:22:10.094Z,101602.93
2023-04-19T02:23:15.417Z,101598.91
2023-04-19T02:24:20.741Z,101602.22
2023-04-19T02:25:26.723Z,101594.48
2023-04-19T02:26:32.139Z,101597.81
2023-04-19T02:27:37.514Z,101597.45
2023-04-19T02:28:42.859Z,101594.06
2023-04-19T02:29:48.223Z,101586.59
2023-04-19T02:30:53.618Z,101593.56
2023-04-19T02:31:59.014Z,101598.5
2023-04-19T02:33:04.555Z,101592.22
2023-04-19T02:34:09.994Z,101591.11
2023-04-19T02:35:15.363Z,101593.08
2023-04-19T02:36:20.705Z,101588.44
2023-04-19T02:37:26.040Z,101601.08
2023-04-19T02:38:31.358Z,101602.42
2023-04-19T02:39:36.790Z,101590.41
2023-04-19T02:40:42.109Z,101590.7
2023-04-19T02:41:47.492Z,101589.19
2023-04-19T02:42:52.843Z,101590.52
2023-04-19T02:43:58.172Z,101591.33
2023-04-19T02:45:03.654Z,101585.73
2023-04-19T02:46:09.227Z,101588.41
2023-04-19T02:47:14.696Z,101586.5
2023-04-19T02:48:20.025Z,101585.31
2023-04-19T02:49:25.396Z,101586.23
2023-04-19T02:50:30.738Z,101585.79
2023-04-19T02:51:36.072Z,101583.68
2023-04-19T02:52:41.459Z,101579.3
2023-04-19T02:53:46.782Z,101584.95
2023-04-19T02:54:52.141Z,101583.47
2023-04-19T02:55:57.486Z,101583.97
2023-04-19T02:57:02.873Z,101573.47
2023-04-19T02:58:08.226Z,101577.48
2023-04-19T02:59:13.533Z,101578.67
2023-04-19T03:00:18.881Z,101569.45
2023-04-19T03:01:24.311Z,101577.13
2023-04-19T03:02:29.888Z,101574.09
2023-04-19T03:03:35.524Z,101573.59
2023-04-19T03:04:41.031Z,101566.54
2023-04-19T03:05:46.353Z,101569.78
2023-04-19T03:06:51.761Z,101571.98
2023-04-19T03:07:57.121Z,101566.78
2023-04-19T03:09:02.479Z,101565.64
2023-04-19T03:10:07.831Z,101561.83
2023-04-19T03:11:13.177Z,101559.3
2023-04-19T03:12:18.500Z,101559.57
2023-04-19T03:13:23.853Z,101564.09
2023-04-19T03:14:29.244Z,101558.95
2023-04-19T03:15:34.641Z,101553.44
2023-04-19T03:16:40.097Z,101554.93
2023-04-19T03:17:45.665Z,101556.33
2023-04-19T03:18:51.130Z,101558.09
2023-04-19T03:19:56.480Z,101554.84
2023-04-19T03:21:01.841Z,101551.69
2023-04-19T03:22:07.256Z,101544.58
2023-04-19T03:23:12.618Z,101545.28
2023-04-19T03:24:18.323Z,101546.67
2023-04-19T03:25:23.677Z,101545.91
2023-04-19T03:26:29.030Z,101549.45
2023-04-19T03:27:34.364Z,101547.48
2023-04-19T03:28:39.709Z,101544.56
2023-04-19T03:29:46.254Z,101541.59
2023-04-19T03:30:53.187Z,101545.2
2023-04-19T03:31:58.601Z,101543.14
2023-04-19T03:33:03.961Z,101539.06
2023-04-19T03:34:09.376Z,101543.08
2023-04-19T03:35:14.700Z,101549.01
2023-04-19T03:36:20.031Z,101540.11
2023-04-19T03:37:25.341Z,101546.12
2023-04-19T03:38:30.680Z,101547.3
2023-04-19T03:39:36.048Z,101554.16
2023-04-19T03:40:41.388Z,101546.95
2023-04-19T03:41:46.815Z,101545.08
2023-04-19T03:42:52.159Z,101542.88
2023-04-19T03:43:57.481Z,101536.11
2023-04-19T03:45:02.814Z,101545.08
2023-04-19T03:46:08.268Z,101539.36
2023-04-19T03:47:13.640Z,101539.36
2023-04-19T03:48:18.978Z,101536.17
2023-04-19T03:49:24.334Z,101542.3
2023-04-19T03:50:29.671Z,101538.28
2023-04-19T03:51:35.048Z,101539.72
2023-04-19T03:52:40.417Z,101529.83
2023-04-19T03:53:45.757Z,101529.26
2023-04-19T03:54:51.079Z,101542.94
2023-04-19T03:55:56.469Z,101540.2
2023-04-19T03:57:01.838Z,101527.94
2023-04-19T03:58:07.219Z,101537.77
2023-04-19T03:59:12.601Z,101529
2023-04-19T04:00:17.955Z,101531.5
2023-04-19T04:01:23.303Z,101525.67
2023-04-19T04:02:28.893Z,101532.7
2023-04-19T04:03:34.825Z,101527.91
2023-04-19T04:04:40.930Z,101529.94
2023-04-19T04:05:46.685Z,101530.23
2023-04-19T04:06:52.021Z,101530.89
2023-04-19T04:07:57.388Z,101518.11
2023-04-19T04:09:02.796Z,101522.22
2023-04-19T04:10:08.168Z,101521.67
2023-04-19T04:11:13.582Z,101519.27
2023-04-19T04:12:18.946Z,101519.02
2023-04-19T04:13:24.293Z,101516.28
2023-04-19T04:14:29.663Z,101509.36
2023-04-19T04:15:35.007Z,101506.07
2023-04-19T04:16:40.534Z,101511.22
2023-04-19T04:17:46.202Z,101504
2023-04-19T04:18:51.875Z,101504.52
2023-04-19T04:19:57.228Z,101509.72
2023-04-19T04:21:02.620Z,101504.87
2023-04-19T04:22:07.953Z,101502.13
2023-04-19T04:23:13.289Z,101510.16
2023-04-19T04:24:18.649Z,101505.16
2023-04-19T04:25:24.692Z,101505.48
2023-04-19T04:26:30.015Z,101504.5
2023-04-19T04:27:35.356Z,101504.86
2023-04-19T04:28:40.682Z,101499.02
2023-04-19T04:29:46.102Z,101499.73
2023-04-19T04:30:51.459Z,101504.47
2023-04-19T04:31:57.034Z,101507.36
2023-04-19T04:33:02.922Z,101504.83
2023-04-19T04:34:08.356Z,101499.68
2023-04-19T04:35:13.679Z,101504.73
2023-04-19T04:36:19.052Z,101496
2023-04-19T04:37:24.445Z,101498.12
2023-04-19T04:38:29.780Z,101496.75
2023-04-19T04:39:35.120Z,101500.42
2023-04-19T04:40:40.429Z,101497.8
2023-04-19T04:41:45.771Z,101497.01
2023-04-19T04:42:51.092Z,101496.75
2023-04-19T04:44:13.139Z,101496.75
2023-04-19T04:45:18.688Z,101496.27
2023-04-19T04:46:24.192Z,101508.63
2023-04-19T04:47:29.666Z,101500.65
2023-04-19T04:48:35.099Z,101502.56
2023-04-19T04:49:40.415Z,101496.34
2023-04-19T04:50:45.804Z,101496.91
2023-04-19T04:51:51.189Z,101488.87
2023-04-19T04:52:56.570Z,101492.13
2023-04-19T04:54:01.906Z,101497.23
2023-04-19T04:55:07.221Z,101496.41
2023-04-19T04:56:12.614Z,101493.84
2023-04-19T04:57:18.100Z,101495.34
2023-04-19T04:58:23.422Z,101482.16
2023-04-19T04:59:28.754Z,101484.97
2023-04-19T05:00:34.098Z,101485.03
2023-04-19T05:01:39.505Z,101484.42
2023-04-19T05:02:45.305Z,101491.89
2023-04-19T05:03:50.901Z,101483.55
2023-04-19T05:04:56.323Z,101487.23
2023-04-19T05:06:01.679Z,101491.82
2023-04-19T05:07:07.067Z,101499.52
2023-04-19T05:08:12.726Z,101483.58
2023-04-19T05:09:18.083Z,101490.63
2023-04-19T05:10:23.508Z,101489.7
2023-04-19T05:11:28.903Z,101490.34
2023-04-19T05:12:34.267Z,101487.75
2023-04-19T05:13:39.635Z,101488.39
2023-04-19T05:14:44.974Z,101482.67
2023-04-19T05:15:50.353Z,101477.5
2023-04-19T05:16:55.912Z,101480.75
2023-04-19T05:18:01.368Z,101483.5
2023-04-19T05:19:06.810Z,101474.75
2023-04-19T05:20:12.188Z,101479.28
2023-04-19T05:21:17.577Z,101475.55
2023-04-19T05:22:22.942Z,101476.59
2023-04-19T05:23:28.292Z,101481.19
2023-04-19T05:24:33.623Z,101475
2023-04-19T05:25:38.963Z,101466.73
2023-04-19T05:26:44.378Z,101465.03
2023-04-19T05:27:49.720Z,101471.25
2023-04-19T05:28:55.113Z,101472.15
2023-04-19T05:30:00.497Z,101474.41
2023-04-19T05:31:06.018Z,101478.84
2023-04-19T05:32:11.412Z,101474.06
2023-04-19T05:33:16.754Z,101465.03
2023-04-19T05:34:23.673Z,101466.31
2023-04-19T05:35:29.040Z,101462.06
2023-04-19T05:36:34.412Z,101469.62
2023-04-19T05:37:39.762Z,101468.77
2023-04-19T05:38:45.087Z,101472.78
2023-04-19T05:39:50.447Z,101471.3
2023-04-19T05:40:55.849Z,101471.72
2023-04-19T05:42:01.212Z,101472.8
2023-04-19T05:43:06.597Z,101482.24
2023-04-19T05:44:11.933Z,101467.57
2023-04-19T05:45:17.478Z,101473.91
2023-04-19T05:46:22.932Z,101470.53
2023-04-19T05:47:28.442Z,101471.09
2023-04-19T05:48:33.848Z,101468.36
2023-04-19T05:49:39.877Z,101470.17
2023-04-19T05:50:47.395Z,101465.8
2023-04-19T05:51:52.774Z,101470.27
2023-04-19T05:52:58.152Z,101466.25
2023-04-19T05:54:03.590Z,101459.55
2023-04-19T05:55:08.962Z,101456.06
2023-04-19T05:56:14.346Z,101461.64
2023-04-19T05:57:19.737Z,101454.95
2023-04-19T05:58:25.091Z,101454.02
2023-04-19T05:59:30.571Z,101461.3
2023-04-19T06:00:35.986Z,101456.34
2023-04-19T06:01:41.476Z,101455.23
2023-04-19T06:02:47.214Z,101451.92
2023-04-19T06:03:53.784Z,101451.7
2023-04-19T06:05:02.840Z,101446.06
2023-04-19T06:06:15.123Z,101456.72
2023-04-19T06:07:35.868Z,101456.37
2023-04-19T06:08:47.738Z,101440.13
2023-04-19T06:09:53.139Z,101441.34
2023-04-19T06:11:11.798Z,101449.23
2023-04-19T06:12:32.812Z,101451.5
2023-04-19T06:13:38.186Z,101448.88
2023-04-19T06:14:43.585Z,101449.3
2023-04-19T06:15:48.993Z,101450.92
2023-04-19T06:16:54.488Z,101448.75
2023-04-19T06:18:01.287Z,101455.52
2023-04-19T06:19:06.724Z,101449.45
2023-04-19T06:20:12.090Z,101455.23
2023-04-19T06:21:17.435Z,101457.97
2023-04-19T06:22:22.840Z,101459.11
2023-04-19T06:23:28.234Z,101459.63
2023-04-19T06:24:36.240Z,101460.09
2023-04-19T06:25:41.635Z,101450.17
2023-04-19T06:26:46.987Z,101459.61
2023-04-19T06:27:52.394Z,101455.23
2023-04-19T06:28:57.761Z,101459.67
2023-04-19T06:30:03.200Z,101464.84
2023-04-19T06:31:08.614Z,101454.53
2023-04-19T06:32:14.037Z,101457.92
2023-04-19T06:33:19.424Z,101458.14
2023-04-19T06:34:24.758Z,101460.37
2023-04-19T06:35:30.154Z,101460.59
2023-04-19T06:36:35.546Z,101453.05
2023-04-19T06:37:40.945Z,101457.78
2023-04-19T06:38:46.303Z,101459.31
2023-04-19T06:39:51.692Z,101455.38
2023-04-19T06:40:57.050Z,101461.63
2023-04-19T06:42:02.523Z,101459.81
2023-04-19T06:43:07.923Z,101459.88
2023-04-19T06:44:13.334Z,101458.19
2023-04-19T06:45:18.895Z,101456.14
2023-04-19T06:46:24.408Z,101455.43
2023-04-19T06:47:30.001Z,101462.58
2023-04-19T06:48:36.504Z,101462.28
2023-04-19T06:49:41.884Z,101462.28
2023-04-19T06:50:47.210Z,101467.7
2023-04-19T06:51:52.617Z,101463.63
2023-04-19T06:52:58.113Z,101464.25
2023-04-19T06:54:03.462Z,101466.36
2023-04-19T06:55:08.785Z,101461.06
2023-04-19T06:56:14.114Z,101457.58
2023-04-19T06:57:19.442Z,101453.03
2023-04-19T06:58:24.804Z,101456.3
2023-04-19T06:59:30.174Z,101455.06
2023-04-19T07:00:35.776Z,101444.41
2023-04-19T07:01:41.216Z,101453.27
2023-04-19T07:02:46.811Z,101456.58
2023-04-19T07:03:53.517Z,101455.54
2023-04-19T07:05:01.774Z,101459.61
2023-04-19T07:06:07.117Z,101456.81
2023-04-19T07:07:12.447Z,101461.76
2023-04-19T07:08:17.814Z,101462.8
2023-04-19T07:09:23.262Z,101457.51
2023-04-19T07:10:28.656Z,101459.42
2023-04-19T07:11:34.023Z,101460.33
2023-04-19T07:12:39.553Z,101463.36
2023-04-19T07:13:45.014Z,101455.75
2023-04-19T07:14:50.473Z,101451.52
2023-04-19T07:15:55.840Z,101453.14
2023-04-19T07:17:01.186Z,101446.86
2023-04-19T07:18:06.585Z,101451.86
2023-04-19T07:19:12.094Z,101447.07
2023-04-19T07:20:17.517Z,101447.42
2023-04-19T07:21:22.941Z,101449.34
2023-04-19T07:22:28.297Z,101443.77
2023-04-19T07:23:33.649Z,101439.41
2023-04-19T07:24:39.050Z,101441.77
2023-04-19T07:25:44.385Z,101430.72
2023-04-19T07:26:49.746Z,101437.77
2023-04-19T07:27:55.126Z,101438.42
2023-04-19T07:29:00.481Z,101439.98
2023-04-19T07:30:05.851Z,101443.09
2023-04-19T07:31:11.182Z,101444.57
2023-04-19T07:32:16.667Z,101440.09
2023-04-19T07:33:22.191Z,101439.71
2023-04-19T07:34:30.750Z,101442.69
2023-04-19T07:35:36.265Z,101438.3
2023-04-19T07:36:41.807Z,101439.58
2023-04-19T07:37:47.170Z,101439.42
2023-04-19T07:38:52.561Z,101431.39
2023-04-19T07:39:58.053Z,101435.66
2023-04-19T07:41:03.469Z,101432.51
2023-04-19T07:42:08.804Z,101424.81
2023-04-19T07:43:14.174Z,101440.04
2023-04-19T07:44:20.053Z,101436.37
2023-04-19T07:45:25.374Z,101441.67
2023-04-19T07:46:30.900Z,101439.98
2023-04-19T07:47:36.362Z,101444.16
2023-04-19T07:48:41.985Z,101450.98
2023-04-19T07:49:47.330Z,101448.23
2023-04-19T07:50:52.664Z,101443.87
2023-04-19T07:51:58.079Z,101447.53
2023-04-19T07:53:03.453Z,101449.52
2023-04-19T07:54:08.869Z,101449.09
2023-04-19T07:55:14.220Z,101445.14
2023-04-19T07:56:19.558Z,101451.07
2023-04-19T07:57:24.942Z,101439.48
2023-04-19T07:58:30.589Z,101443.25
2023-04-19T07:59:35.962Z,101432.24
2023-04-19T08:00:41.399Z,101446.47
2023-04-19T08:01:46.983Z,101431.89
2023-04-19T08:02:52.976Z,101441.84
2023-04-19T08:03:59.145Z,101439.22
2023-04-19T08:05:05.508Z,101419.25
2023-04-19T08:06:10.957Z,101421.8
2023-04-19T08:07:16.336Z,101426.81
2023-04-19T08:08:21.704Z,101426.11
2023-04-19T08:09:27.174Z,101424
2023-04-19T08:10:32.543Z,101430.47
2023-04-19T08:11:37.969Z,101424.28
2023-04-19T08:13:05.560Z,101428.42
2023-04-19T08:14:32.898Z,101434.71
2023-04-19T08:16:32.080Z,101434.87
2023-04-19T08:18:00.254Z,101439.88
2023-04-19T08:19:05.860Z,101437.61
2023-04-19T08:20:11.214Z,101437.26
2023-04-19T08:21:16.569Z,101437.03
2023-04-19T08:22:21.949Z,101441.28
2023-04-19T08:23:41.524Z,101436.84
2023-04-19T08:24:53.126Z,101445.01
2023-04-19T08:25:58.502Z,101440.22
2023-04-19T08:27:03.835Z,101443.47
2023-04-19T08:28:09.194Z,101440.34
2023-04-19T08:29:14.634Z,101443.47
2023-04-19T08:30:20.518Z,101448.83
2023-04-19T08:31:25.901Z,101448.95
2023-04-19T08:32:31.338Z,101441.61
2023-04-19T08:33:36.742Z,101442.31
2023-04-19T08:34:42.210Z,101442.12
2023-04-19T08:35:47.550Z,101444.01
2023-04-19T08:37:05.035Z,101446.34
2023-04-19T08:38:12.913Z,101441.13
2023-04-19T08:39:34.095Z,101429.99
2023-04-19T08:40:40.710Z,101429.28
2023-04-19T08:41:56.046Z,101438.31
2023-04-19T08:43:14.388Z,101434.09
2023-04-19T08:44:36.635Z,101436.06
2023-04-19T08:45:57.852Z,101435.48
2023-04-19T08:47:03.268Z,101433
2023-04-19T08:48:08.773Z,101431.78
2023-04-19T08:49:14.402Z,101428.34
2023-04-19T08:50:38.645Z,101430.86
2023-04-19T08:52:05.150Z,101424.67
2023-04-19T08:53:26.248Z,101423.69
2023-04-19T08:54:31.678Z,101422.67
2023-04-19T08:55:38.264Z,101420.89
2023-04-19T08:56:58.736Z,101420.61
2023-04-19T08:58:07.607Z,101416.44
2023-04-19T08:59:32.506Z,101405.72
2023-04-19T09:00:37.857Z,101406.3
2023-04-19T09:01:45.997Z,101406.59
2023-04-19T09:02:52.027Z,101403.56
2023-04-19T09:04:34.384Z,101398.11
2023-04-19T09:05:42.892Z,101391.7
2023-04-19T09:06:48.648Z,101389.02
2023-04-19T09:07:54.033Z,101384.94
2023-04-19T09:08:59.459Z,101395.08
2023-04-19T09:10:06.007Z,101391
2023-04-19T09:11:11.753Z,101390.42
2023-04-19T09:12:17.153Z,101394.86
2023-04-19T09:13:22.910Z,101393.45
2023-04-19T09:14:28.456Z,101388.09
2023-04-19T09:15:34.144Z,101392.89
2023-04-19T09:16:39.527Z,101383.66
2023-04-19T09:17:44.999Z,101390.42
2023-04-19T09:20:28.269Z,101378.37
2023-04-19T09:21:33.573Z,101384.08
2023-04-19T09:22:38.924Z,101379.64
2023-04-19T09:23:44.273Z,101385.06
2023-04-19T09:26:22.638Z,101378.08
2023-04-19T09:27:28.677Z,101381.27
2023-04-19T09:28:34.083Z,101388.89
2023-04-19T09:29:39.413Z,101378.65
2023-04-19T09:31:06.942Z,101374.41
2023-04-19T09:32:43.030Z,101379.86
2023-04-19T09:33:48.700Z,101375.05
2023-04-19T09:34:54.094Z,101376.33
2023-04-19T09:35:59.446Z,101376.55
2023-04-19T09:37:21.124Z,101379.22
2023-04-19T09:38:36.256Z,101374.79
2023-04-19T09:39:41.642Z,101377.47
2023-04-19T09:40:46.996Z,101376.03
2023-04-19T09:41:52.378Z,101378.45
2023-04-19T09:43:11.023Z,101373.45
2023-04-19T09:45:02.091Z,101376.61
2023-04-19T09:46:25.205Z,101374.78
2023-04-19T09:47:30.650Z,101375.26
2023-04-19T09:48:36.036Z,101379.02
2023-04-19T09:49:50.348Z,101374.49
2023-04-19T09:51:07.554Z,101371.34
2023-04-19T09:52:18.391Z,101372.73
2023-04-19T09:53:23.800Z,101375
2023-04-19T09:54:29.169Z,101380.62
2023-04-19T09:55:57.576Z,101380.77
2023-04-19T09:57:07.929Z,101373.38
2023-04-19T09:58:13.320Z,101375.13
2023-04-19T09:59:22.505Z,101376.34
2023-04-19T10:00:35.966Z,101372.89
2023-04-19T10:01:52.961Z,101375.34
2023-04-19T10:02:58.860Z,101377.28
2023-04-19T10:04:29.353Z,101382.8
2023-04-19T10:06:20.606Z,101383.56
2023-04-19T10:08:02.589Z,101384.48
2023-04-19T10:09:08.066Z,101380.17
2023-04-19T10:10:27.742Z,101383.84
2023-04-19T10:11:51.352Z,101377.44
2023-04-19T10:13:20.403Z,101368.48
2023-04-19T10:14:30.350Z,101370.39
2023-04-19T10:15:49.828Z,101366.47
2023-04-19T10:17:01.375Z,101364.97
2023-04-19T10:18:06.844Z,101364.62
2023-04-19T10:19:12.295Z,101363.05
2023-04-19T10:20:17.872Z,101354.09
2023-04-19T10:21:23.225Z,101365.79
2023-04-19T10:22:28.584Z,101359.6
2023-04-19T10:23:34.020Z,101360.88
2023-04-19T10:24:39.369Z,101365.79
2023-04-19T10:25:47.318Z,101365.17
2023-04-19T10:26:52.679Z,101359.19
2023-04-19T10:27:58.022Z,101364.77
2023-04-19T10:29:03.362Z,101362.63
2023-04-19T10:30:09.207Z,101366.73
2023-04-19T10:31:14.671Z,101362.27
2023-04-19T10:32:20.666Z,101365.39
2023-04-19T10:33:26.142Z,101364.75
2023-04-19T10:34:31.472Z,101359.23
2023-04-19T10:35:36.988Z,101359.39
2023-04-19T10:36:43.375Z,101358
2023-04-19T10:37:49.061Z,101357.07
2023-04-19T10:38:54.431Z,101359.45
2023-04-19T10:39:59.969Z,101350.02
2023-04-19T10:41:05.398Z,101357.2
2023-04-19T10:42:10.750Z,101352.77
2023-04-19T10:43:16.088Z,101354.87
2023-04-19T10:44:21.461Z,101356.14
2023-04-19T10:45:26.787Z,101355.93
2023-04-19T10:46:32.312Z,101345.16
2023-04-19T10:47:37.965Z,101357.27
2023-04-19T10:48:43.432Z,101353.62
2023-04-19T10:49:48.783Z,101351.3
2023-04-19T10:50:54.096Z,101347.98
2023-04-19T10:51:59.447Z,101359.81
2023-04-19T10:53:04.775Z,101346.3
2023-04-19T10:54:10.177Z,101346.91
2023-04-19T10:55:15.522Z,101356.56
2023-04-19T10:56:20.844Z,101347.77
2023-04-19T10:57:26.233Z,101343.74
2023-04-19T10:58:31.599Z,101350.66
2023-04-19T10:59:36.964Z,101345.02
2023-04-19T11:00:42.338Z,101343.39
2023-04-19T11:01:48.346Z,101344.79
2023-04-19T11:02:54.068Z,101352.7
2023-04-19T11:03:59.992Z,101342.75
2023-04-19T11:05:05.992Z,101346.77
2023-04-19T11:06:11.460Z,101338.11
2023-04-19T11:07:16.815Z,101342.63
2023-04-19T11:08:22.193Z,101348.47
2023-04-19T11:09:27.955Z,101344.8
2023-04-19T11:10:33.715Z,101349.59
2023-04-19T11:11:39.126Z,101341.14
2023-04-19T11:12:44.434Z,101345.86
2023-04-19T11:13:49.791Z,101347.27
2023-04-19T11:14:55.372Z,101341.91
2023-04-19T11:16:00.849Z,101344.86
2023-04-19T11:17:06.481Z,101341.77
2023-04-19T11:18:14.518Z,101340.49
2023-04-19T11:19:20.543Z,101346.43
2023-04-19T11:20:25.920Z,101338.73
2023-04-19T11:21:31.940Z,101339.03
2023-04-19T11:22:37.358Z,101339.44
2023-04-19T11:23:42.707Z,101339.44
2023-04-19T11:24:48.050Z,101336
2023-04-19T11:25:53.451Z,101335.7
2023-04-19T11:26:58.849Z,101331.69
2023-04-19T11:28:04.172Z,101329.88
2023-04-19T11:29:09.491Z,101329.88
2023-04-19T11:30:14.857Z,101329.78
2023-04-19T11:31:20.506Z,101326.2
2023-04-19T11:32:26.133Z,101331.69
2023-04-19T11:33:31.506Z,101331.28
2023-04-19T11:34:36.901Z,101327.38
2023-04-19T11:35:42.287Z,101327.03
2023-04-19T11:36:47.632Z,101319.7
2023-04-19T11:37:52.965Z,101331.28
2023-04-19T11:38:58.366Z,101328.19
2023-04-19T11:40:06.181Z,101324.07
2023-04-19T11:41:11.580Z,101324.58
2023-04-19T11:42:16.948Z,101323.17
2023-04-19T11:43:22.317Z,101328.09
2023-04-19T11:44:27.662Z,101328.53
2023-04-19T11:45:39.408Z,101331.91
2023-04-19T11:46:45.410Z,101328.81
2023-04-19T11:47:50.944Z,101336.28
2023-04-19T11:48:56.357Z,101331.49
2023-04-19T11:50:01.745Z,101324.98
2023-04-19T11:51:07.207Z,101323.58
2023-04-19T11:52:13.188Z,101331.84
2023-04-19T11:53:18.659Z,101326.55
2023-04-19T11:54:24.055Z,101330.85
2023-04-19T11:55:29.472Z,101329.45
2023-04-19T11:56:35.036Z,101329.3
2023-04-19T11:57:42.826Z,101327.89
2023-04-19T11:58:48.385Z,101323.17
2023-04-19T11:59:53.856Z,101324.57
2023-04-19T12:00:59.211Z,101324.22
2023-04-19T12:02:04.695Z,101322.31
2023-04-19T12:03:10.503Z,101327.19
2023-04-19T12:04:17.213Z,101327.76
2023-04-19T12:05:23.701Z,101320.14
2023-04-19T12:06:29.396Z,101325.34
2023-04-19T12:07:37.068Z,101323.3
2023-04-19T12:08:42.400Z,101320.97
2023-04-19T12:09:47.803Z,101318.29
2023-04-19T12:10:53.120Z,101316.06
2023-04-19T12:11:58.487Z,101317.59
2023-04-19T12:13:03.788Z,101322.25
2023-04-19T12:14:09.152Z,101316.19
2023-04-19T12:15:14.577Z,101320.71
2023-04-19T12:16:20.053Z,101318.45
2023-04-19T12:17:26.576Z,101321.06
2023-04-19T12:18:31.988Z,101324.98
2023-04-19T12:19:37.355Z,101318.57
2023-04-19T12:20:42.730Z,101319.08
2023-04-19T12:21:48.034Z,101317.74
2023-04-19T12:22:53.327Z,101318.57
2023-04-19T12:23:58.674Z,101316.76
2023-04-19T12:25:04.030Z,101317.8
2023-04-19T12:26:09.530Z,101319.5
2023-04-19T12:27:14.880Z,101318.16
2023-04-19T12:28:20.273Z,101314.08
2023-04-19T12:29:25.730Z,101311.34
2023-04-19T12:30:31.086Z,101310.06
2023-04-19T12:31:36.479Z,101314.02
2023-04-19T12:32:41.940Z,101313.66
2023-04-19T12:33:47.376Z,101310.06
2023-04-19T12:34:52.762Z,101306.97
2023-04-19T12:35:58.154Z,101306.11
2023-04-19T12:37:03.571Z,101312.33
2023-04-19T12:38:08.973Z,101305.63
2023-04-19T12:39:14.459Z,101306.52
2023-04-19T12:40:20.147Z,101307.38
2023-04-19T12:41:25.499Z,101305.98
2023-04-19T12:42:30.853Z,101305.13
2023-04-19T12:43:36.273Z,101299.83
2023-04-19T12:44:41.690Z,101301.17
2023-04-19T12:45:47.126Z,101298.78
2023-04-19T12:46:52.539Z,101299.35